New Gloucester, Maine
Current Conditions -  °F | °C
As of 6:35 AM on Tuesday 21 Oct 2014 (Local Time) from KLEW Reporting Station
Broken Clouds Broken Clouds  
Wind Chill: 38°   Ceiling: 7000
Heat Index: 41°   Visibility: 10mi
Dew Point: 37°   Wind: 5mph
Humidity: 87%   Direction: 10°N
Pressure: 30.01"   Gusts: NA
Location:  43.96°N, 70.26°W
Report Text: KLEW 211035Z AUTO 01004KT 10SM FEW047 SCT060 BKN070 05/03 A3001 RMK AO1
Loading
Personal Weather Stations






























Interactive Weather Map
Tropical Storm Tracking
New forecast layout! Learn more

10-Day Weather Forecast

Advertisements
Track Severe Weather on mobile